Time,TemperatureF,DewpointF,PressureIn,WindDirection,WindDirectionDegrees,WindSpeedMPH,WindSpeedGustMPH,Humidity,HourlyPrecipIn,Conditions,Clouds,dailyrainin,SoftwareType,DateUTC
2013-03-12 00:00:00,54.5,48.1,29.81,SSE,167,6.0,15.0,79,0.00,,,0.00,Wunderground v.1.15,2013-03-12 04:00:00,
2013-03-12 00:01:00,54.5,48.1,29.81,South,180,3.0,7.0,79,0.00,,,0.00,Wunderground v.1.15,2013-03-12 04:01:00,
2013-03-12 00:02:00,54.5,48.1,29.81,SSE,153,4.0,7.0,79,0.00,,,0.00,Wunderground v.1.15,2013-03-12 04:02:00,
2013-03-12 00:03:00,54.4,48.0,29.81,South,185,2.0,7.0,79,0.00,,,0.00,Wunderground v.1.15,2013-03-12 04:03:00,
2013-03-12 00:08:00,54.4,48.0,29.81,South,176,3.0,7.0,79,0.00,,,0.00,Wunderground v.1.15,2013-03-12 04:08:00,
2013-03-12 00:14:00,54.4,48.0,29.82,South,189,5.0,7.0,79,0.00,,,0.00,Wunderground v.1.15,2013-03-12 04:14:00,
2013-03-12 00:19:00,54.4,48.0,29.81,South,178,11.0,11.0,79,0.00,,,0.00,Wunderground v.1.15,2013-03-12 04:19:00,
2013-03-12 00:24:00,54.4,48.0,29.81,SSW,213,11.0,11.0,79,0.00,,,0.00,Wunderground v.1.15,2013-03-12 04:24:00,
2013-03-12 00:30:00,54.5,48.1,29.80,SSE,157,16.0,16.0,79,0.00,,,0.00,Wunderground v.1.15,2013-03-12 04:30:00,
2013-03-12 00:36:00,54.7,48.3,29.80,SSE,161,11.0,16.0,79,0.00,,,0.00,Wunderground v.1.15,2013-03-12 04:36:00,
2013-03-12 00:41:00,54.7,48.0,29.80,SSW,203,12.0,12.0,78,0.00,,,0.00,Wunderground v.1.15,2013-03-12 04:41:00,
2013-03-12 00:47:00,54.8,48.1,29.80,South,180,13.0,13.0,78,0.00,,,0.00,Wunderground v.1.15,2013-03-12 04:47:00,
2013-03-12 00:52:00,55.0,48.3,29.80,SE,140,7.0,10.0,78,0.00,,,0.00,Wunderground v.1.15,2013-03-12 04:52:00,
2013-03-12 00:57:00,55.1,48.4,29.80,East,95,9.0,14.0,78,0.00,,,0.00,Wunderground v.1.15,2013-03-12 04:57:00,
2013-03-12 01:00:00,55.1,48.4,29.80,SSE,158,9.0,27.0,78,0.00,,---,0.00,VWS V14.01,2013-03-12 05:00:00,
2013-03-12 01:03:00,55.1,48.4,29.81,SSE,163,11.0,11.0,78,0.00,,,0.00,Wunderground v.1.15,2013-03-12 05:03:00,
2013-03-12 01:08:00,55.1,48.4,29.80,South,184,10.0,11.0,78,0.00,,,0.00,Wunderground v.1.15,2013-03-12 05:08:00,
2013-03-12 01:13:00,55.1,48.4,29.79,SSE,159,10.0,10.0,78,0.00,,,0.00,Wunderground v.1.15,2013-03-12 05:13:00,
2013-03-12 01:19:00,55.1,48.4,29.80,SE,144,11.0,11.0,78,0.00,,,0.00,Wunderground v.1.15,2013-03-12 05:19:00,
2013-03-12 01:25:00,55.1,48.4,29.80,SE,130,4.0,8.0,78,0.00,,,0.00,Wunderground v.1.15,2013-03-12 05:25:00,
2013-03-12 01:30:00,55.1,48.4,29.80,SE,142,4.0,6.0,78,0.00,,,0.00,Wunderground v.1.15,2013-03-12 05:30:00,
2013-03-12 01:36:00,55.1,48.4,29.80,SSE,161,5.0,10.0,78,0.00,,,0.00,Wunderground v.1.15,2013-03-12 05:36:00,
2013-03-12 01:41:00,55.3,48.9,29.80,South,175,3.0,7.0,79,0.00,,,0.00,Wunderground v.1.15,2013-03-12 05:41:00,
2013-03-12 01:47:00,55.3,48.6,29.80,SSW,196,4.0,10.0,78,0.00,,,0.00,Wunderground v.1.15,2013-03-12 05:47:00,
2013-03-12 01:53:00,55.4,48.7,29.80,South,171,6.0,7.0,78,0.00,,,0.00,Wunderground v.1.15,2013-03-12 05:53:00,
2013-03-12 01:58:00,55.3,48.9,29.79,SSE,149,4.0,7.0,79,0.00,,,0.00,Wunderground v.1.15,2013-03-12 05:58:00,
2013-03-12 02:00:00,55.3,48.9,29.79,SSE,158,6.0,16.0,79,0.00,,---,0.00,VWS V14.01,2013-03-12 06:00:00,
2013-03-12 02:03:00,55.4,49.0,29.78,SSE,161,10.0,18.0,79,0.00,,,0.00,Wunderground v.1.15,2013-03-12 06:03:00,
2013-03-12 02:08:00,55.4,48.7,29.78,SSE,159,5.0,18.0,78,0.00,,,0.00,Wunderground v.1.15,2013-03-12 06:08:00,
2013-03-12 02:13:00,55.6,49.2,29.78,SE,141,15.0,15.0,79,0.00,,,0.00,Wunderground v.1.15,2013-03-12 06:13:00,
2013-03-12 02:18:00,55.6,48.8,29.78,SW,217,4.0,15.0,78,0.00,,,0.00,Wunderground v.1.15,2013-03-12 06:18:00,
2013-03-12 02:23:00,55.6,48.8,29.78,South,182,11.0,12.0,78,0.00,,,0.00,Wunderground v.1.15,2013-03-12 06:23:00,
2013-03-12 02:28:00,55.6,49.2,29.77,SSE,168,6.0,19.0,79,0.00,,,0.00,Wunderground v.1.15,2013-03-12 06:28:00,
2013-03-12 02:30:00,55.6,49.2,29.77,SSE,158,7.0,19.0,79,0.00,,---,0.00,VWS V14.01,2013-03-12 06:30:00,
2013-03-12 02:33:00,55.7,49.3,29.77,ESE,108,3.0,21.0,79,0.00,,,0.00,Wunderground v.1.15,2013-03-12 06:33:00,
2013-03-12 02:38:00,55.7,49.3,29.77,SSE,150,4.0,21.0,79,0.00,,,0.00,Wunderground v.1.15,2013-03-12 06:38:00,
2013-03-12 02:43:00,55.9,49.1,29.77,SSW,194,5.0,12.0,78,0.00,,,0.00,Wunderground v.1.15,2013-03-12 06:43:00,
2013-03-12 02:48:00,55.9,49.1,29.76,South,186,9.0,17.0,78,0.00,,,0.00,Wunderground v.1.15,2013-03-12 06:48:00,
2013-03-12 02:53:00,56.0,49.6,29.76,SSE,165,9.0,16.0,79,0.00,,,0.00,Wunderground v.1.15,2013-03-12 06:53:00,
2013-03-12 02:58:00,56.0,49.6,29.76,South,180,7.0,24.0,79,0.00,,,0.00,Wunderground v.1.15,2013-03-12 06:58:00,
2013-03-12 03:00:00,56.0,50.9,29.76,SSE,158,8.0,24.0,83,0.00,,---,0.00,VWS V14.01,2013-03-12 07:00:00,
2013-03-12 03:03:00,56.2,49.8,29.75,South,182,8.0,11.0,79,0.00,,,0.00,Wunderground v.1.15,2013-03-12 07:03:00,
2013-03-12 03:08:00,56.2,50.4,29.75,South,171,6.0,20.0,81,0.00,,,0.00,Wunderground v.1.15,2013-03-12 07:08:00,
2013-03-12 03:13:00,56.2,49.8,29.75,SE,129,4.0,18.0,79,0.00,,,0.00,Wunderground v.1.15,2013-03-12 07:13:00,
2013-03-12 03:18:00,56.2,49.8,29.74,SSE,160,7.0,18.0,79,0.00,,,0.00,Wunderground v.1.15,2013-03-12 07:18:00,
2013-03-12 03:23:00,56.2,49.8,29.75,SE,138,13.0,20.0,79,0.00,,,0.00,Wunderground v.1.15,2013-03-12 07:23:00,
2013-03-12 03:28:00,56.2,49.8,29.75,South,185,5.0,20.0,79,0.00,,,0.00,Wunderground v.1.15,2013-03-12 07:28:00,
2013-03-12 03:30:00,56.2,49.8,29.75,SSE,158,8.0,25.0,79,0.00,,---,0.00,VWS V14.01,2013-03-12 07:30:00,
2013-03-12 03:33:00,56.2,49.8,29.75,South,179,4.0,15.0,79,0.00,,,0.00,Wunderground v.1.15,2013-03-12 07:33:00,
2013-03-12 03:38:00,56.2,50.1,29.75,SSW,193,7.0,16.0,80,0.00,,,0.00,Wunderground v.1.15,2013-03-12 07:38:00,
2013-03-12 03:43:00,56.3,50.2,29.74,South,180,17.0,19.0,80,0.00,,,0.00,Wunderground v.1.15,2013-03-12 07:43:00,
2013-03-12 03:48:00,56.3,50.2,29.74,South,190,7.0,21.0,80,0.00,,,0.00,Wunderground v.1.15,2013-03-12 07:48:00,
2013-03-12 03:53:00,56.5,50.4,29.74,SSE,161,10.0,15.0,80,0.00,,,0.00,Wunderground v.1.15,2013-03-12 07:53:00,
2013-03-12 03:58:00,56.5,50.4,29.74,SSW,195,9.0,17.0,80,0.00,,,0.00,Wunderground v.1.15,2013-03-12 07:58:00,
2013-03-12 04:00:00,56.3,50.2,29.74,South,180,9.0,22.0,80,0.00,,---,0.00,VWS V14.01,2013-03-12 08:00:00,
2013-03-12 04:03:00,56.3,50.2,29.74,SSE,159,4.0,14.0,80,0.00,,,0.00,Wunderground v.1.15,2013-03-12 08:03:00,
2013-03-12 04:08:00,56.3,50.2,29.74,SSE,156,6.0,18.0,80,0.00,,,0.00,Wunderground v.1.15,2013-03-12 08:08:00,
2013-03-12 04:13:00,56.2,50.1,29.74,SE,133,3.0,15.0,80,0.00,,,0.00,Wunderground v.1.15,2013-03-12 08:13:00,
2013-03-12 04:18:00,56.2,50.1,29.74,SE,134,3.0,15.0,80,0.00,,,0.00,Wunderground v.1.15,2013-03-12 08:18:00,
2013-03-12 04:23:00,56.2,50.1,29.74,SSW,194,4.0,11.0,80,0.00,,,0.00,Wunderground v.1.15,2013-03-12 08:23:00,
2013-03-12 04:28:00,56.2,50.1,29.74,South,177,4.0,16.0,80,0.00,,,0.00,Wunderground v.1.15,2013-03-12 08:28:00,
2013-03-12 04:30:00,56.2,50.5,29.74,SSE,158,6.0,18.0,81,0.00,,---,0.00,VWS V14.01,2013-03-12 08:30:00,
2013-03-12 04:33:00,56.2,50.4,29.74,SSW,196,2.0,15.0,81,0.00,,,0.00,Wunderground v.1.15,2013-03-12 08:33:00,
2013-03-12 04:38:00,56.0,50.3,29.73,South,180,3.0,15.0,81,0.00,,,0.00,Wunderground v.1.15,2013-03-12 08:38:00,
2013-03-12 04:43:00,56.0,50.3,29.73,SSW,195,5.0,12.0,81,0.00,,,0.00,Wunderground v.1.15,2013-03-12 08:43:00,
2013-03-12 04:48:00,56.0,50.6,29.73,SSW,208,4.0,16.0,82,0.00,,,0.00,Wunderground v.1.15,2013-03-12 08:48:00,
2013-03-12 04:53:00,56.0,50.6,29.73,SSW,196,15.0,15.0,82,0.00,,,0.00,Wunderground v.1.15,2013-03-12 08:53:00,
2013-03-12 04:58:00,56.0,50.6,29.73,SSE,163,3.0,15.0,82,0.00,,,0.00,Wunderground v.1.15,2013-03-12 08:58:00,
2013-03-12 05:00:00,56.0,50.6,29.73,South,180,6.0,16.0,82,0.00,,---,0.00,VWS V14.01,2013-03-12 09:00:00,
2013-03-12 05:03:00,56.0,50.6,29.72,SSW,198,3.0,11.0,82,0.00,,,0.00,Wunderground v.1.15,2013-03-12 09:03:00,
2013-03-12 05:08:00,55.9,50.8,29.72,SSE,153,7.0,13.0,83,0.00,,,0.00,Wunderground v.1.15,2013-03-12 09:08:00,
2013-03-12 05:13:00,55.7,50.6,29.72,South,178,2.0,6.0,83,0.00,,,0.00,Wunderground v.1.15,2013-03-12 09:13:00,
2013-03-12 05:18:00,55.7,50.9,29.73,ESE,118,2.0,7.0,84,0.00,,,0.00,Wunderground v.1.15,2013-03-12 09:18:00,
2013-03-12 05:23:00,55.6,50.8,29.73,SW,217,4.0,6.0,84,0.00,,,0.00,Wunderground v.1.15,2013-03-12 09:23:00,
2013-03-12 05:28:00,55.4,51.0,29.73,SSE,161,4.0,10.0,85,0.00,,,0.00,Wunderground v.1.15,2013-03-12 09:28:00,
2013-03-12 05:30:00,55.4,51.0,29.74,South,180,4.0,13.0,85,0.00,,---,0.00,VWS V14.01,2013-03-12 09:30:00,
2013-03-12 05:33:00,55.3,51.5,29.73,SE,131,2.0,7.0,87,0.00,,,0.01,Wunderground v.1.15,2013-03-12 09:33:00,
2013-03-12 05:38:00,55.1,51.6,29.72,South,172,4.0,9.0,88,0.00,,,0.01,Wunderground v.1.15,2013-03-12 09:38:00,
2013-03-12 05:43:00,55.0,51.8,29.73,South,169,3.0,11.0,89,0.07,,,0.02,Wunderground v.1.15,2013-03-12 09:43:00,
2013-03-12 05:48:00,54.8,51.9,29.73,SSE,159,4.0,11.0,90,0.07,,,0.02,Wunderground v.1.15,2013-03-12 09:48:00,
2013-03-12 05:54:00,54.7,52.1,29.73,South,185,2.0,10.0,91,0.06,,,0.03,Wunderground v.1.15,2013-03-12 09:54:00,
2013-03-12 05:59:00,54.5,52.2,29.74,South,184,3.0,10.0,92,0.08,,,0.04,Wunderground v.1.15,2013-03-12 09:59:00,
2013-03-12 06:00:00,54.4,52.1,29.74,SSE,158,4.0,11.0,92,0.04,,---,0.04,VWS V14.01,2013-03-12 10:00:00,
2013-03-12 06:04:00,54.4,52.4,29.73,SW,214,0.0,4.0,93,0.14,,,0.05,Wunderground v.1.15,2013-03-12 10:04:00,
2013-03-12 06:09:00,54.2,52.2,29.73,South,175,2.0,5.0,93,0.18,,,0.07,Wunderground v.1.15,2013-03-12 10:09:00,
2013-03-12 06:14:00,54.1,52.4,29.73,South,184,3.0,6.0,94,0.12,,,0.08,Wunderground v.1.15,2013-03-12 10:14:00,
2013-03-12 06:19:00,53.9,52.5,29.73,SSW,205,2.0,6.0,95,0.13,,,0.09,Wunderground v.1.15,2013-03-12 10:19:00,
2013-03-12 06:24:00,53.8,52.4,29.73,SSW,205,0.0,2.0,95,0.11,,,0.10,Wunderground v.1.15,2013-03-12 10:24:00,
2013-03-12 06:29:00,53.8,52.7,29.73,SSW,205,1.0,2.0,96,0.10,,,0.10,Wunderground v.1.15,2013-03-12 10:29:00,
2013-03-12 06:30:00,53.8,52.7,29.73,South,180,1.0,6.0,96,0.10,,---,0.10,VWS V14.01,2013-03-12 10:30:00,
2013-03-12 06:34:00,53.6,52.5,29.73,SSW,205,0.0,2.0,96,0.07,,,0.11,Wunderground v.1.15,2013-03-12 10:34:00,
2013-03-12 06:39:00,53.6,52.5,29.73,SE,140,0.0,3.0,96,0.07,,,0.11,Wunderground v.1.15,2013-03-12 10:39:00,
2013-03-12 06:44:00,53.5,52.4,29.72,SE,140,0.0,1.0,96,0.05,,,0.11,Wunderground v.1.15,2013-03-12 10:44:00,
2013-03-12 06:49:00,53.5,52.7,29.73,SE,141,1.0,2.0,97,0.04,,,0.12,Wunderground v.1.15,2013-03-12 10:49:00,
2013-03-12 06:54:00,53.5,52.7,29.72,SE,141,1.0,2.0,97,0.04,,,0.12,Wunderground v.1.15,2013-03-12 10:54:00,
2013-03-12 06:59:00,53.3,52.5,29.72,SE,141,0.0,2.0,97,0.06,,,0.13,Wunderground v.1.15,2013-03-12 10:59:00,
2013-03-12 07:00:00,53.3,52.5,29.72,SE,135,0.0,3.0,97,0.13,,---,0.13,VWS V14.01,2013-03-12 11:00:00,
2013-03-12 07:04:00,53.3,52.5,29.72,SE,141,0.0,0.0,97,0.17,,,0.14,Wunderground v.1.15,2013-03-12 11:04:00,
2013-03-12 07:09:00,53.3,52.5,29.72,SE,141,0.0,0.0,97,0.16,,,0.15,Wunderground v.1.15,2013-03-12 11:09:00,
2013-03-12 07:14:00,53.2,52.4,29.72,SE,141,0.0,1.0,97,0.24,,,0.17,Wunderground v.1.15,2013-03-12 11:14:00,
2013-03-12 07:19:00,53.2,52.7,29.72,SE,141,0.0,1.0,98,0.26,,,0.20,Wunderground v.1.15,2013-03-12 11:19:00,
2013-03-12 07:24:00,53.2,52.7,29.72,SE,141,0.0,0.0,98,0.32,,,0.23,Wunderground v.1.15,2013-03-12 11:24:00,
2013-03-12 07:29:00,53.2,52.7,29.71,SE,141,1.0,1.0,98,0.29,,,0.25,Wunderground v.1.15,2013-03-12 11:29:00,
2013-03-12 07:30:00,53.2,52.7,29.71,SE,135,0.0,1.0,98,0.21,,---,0.25,VWS V14.01,2013-03-12 11:30:00,
2013-03-12 07:35:00,53.1,52.6,29.72,SE,141,0.0,1.0,98,0.31,,,0.27,Wunderground v.1.15,2013-03-12 11:35:00,
2013-03-12 07:40:00,53.1,52.6,29.72,SE,141,1.0,1.0,98,0.20,,,0.29,Wunderground v.1.15,2013-03-12 11:40:00,
2013-03-12 07:45:00,53.1,52.6,29.71,SE,141,1.0,2.0,98,0.32,,,0.31,Wunderground v.1.15,2013-03-12 11:45:00,
2013-03-12 07:50:00,53.1,52.6,29.72,SE,141,0.0,1.0,98,0.35,,,0.34,Wunderground v.1.15,2013-03-12 11:50:00,
2013-03-12 07:55:00,53.1,52.8,29.72,North,360,1.0,2.0,99,0.27,,,0.37,Wunderground v.1.15,2013-03-12 11:55:00,
2013-03-12 08:00:00,52.9,52.6,29.72,North,5,3.0,4.0,99,0.26,,,0.39,Wunderground v.1.15,2013-03-12 12:00:00,
2013-03-12 08:05:00,51.7,51.2,29.72,NNW,333,1.0,5.0,98,0.50,,,0.41,Wunderground v.1.15,2013-03-12 12:05:00,
2013-03-12 08:10:00,50.7,49.9,29.74,NNW,340,3.0,3.0,97,1.05,,,0.47,Wunderground v.1.15,2013-03-12 12:10:00,
2013-03-12 08:15:00,50.1,49.3,29.74,North,355,3.0,3.0,97,0.52,,,0.52,Wunderground v.1.15,2013-03-12 12:15:00,
2013-03-12 08:20:00,49.6,48.8,29.72,NNW,348,3.0,3.0,97,0.49,,,0.56,Wunderground v.1.15,2013-03-12 12:20:00,
2013-03-12 08:25:00,49.2,48.4,29.73,North,355,1.0,5.0,97,0.23,,,0.58,Wunderground v.1.15,2013-03-12 12:25:00,
2013-03-12 08:30:00,48.8,48.0,29.74,North,11,2.0,3.0,97,0.14,,,0.60,Wunderground v.1.15,2013-03-12 12:30:00,
2013-03-12 08:35:00,48.3,47.5,29.74,NNW,345,1.0,4.0,97,0.27,,,0.62,Wunderground v.1.15,2013-03-12 12:35:00,
2013-03-12 08:40:00,47.9,47.1,29.74,NNE,18,2.0,2.0,97,0.27,,,0.64,Wunderground v.1.15,2013-03-12 12:40:00,
2013-03-12 08:45:00,47.4,46.6,29.74,NNW,332,2.0,6.0,97,0.20,,,0.66,Wunderground v.1.15,2013-03-12 12:45:00,
2013-03-12 08:50:00,47.0,46.2,29.73,NNW,333,3.0,3.0,97,0.35,,,0.69,Wunderground v.1.15,2013-03-12 12:50:00,
2013-03-12 08:55:00,46.7,45.9,29.74,NE,42,1.0,6.0,97,0.32,,,0.71,Wunderground v.1.15,2013-03-12 12:55:00,
2013-03-12 09:00:00,46.5,45.7,29.74,NNE,18,2.0,3.0,97,0.24,,,0.73,Wunderground v.1.15,2013-03-12 13:00:00,
2013-03-12 09:05:00,46.4,45.6,29.74,NNE,16,2.0,4.0,97,0.14,,,0.74,Wunderground v.1.15,2013-03-12 13:05:00,
2013-03-12 09:10:00,46.2,45.4,29.74,NNW,340,1.0,5.0,97,0.12,,,0.75,Wunderground v.1.15,2013-03-12 13:10:00,
2013-03-12 09:15:00,46.1,45.3,29.74,NNW,335,4.0,6.0,97,0.09,,,0.76,Wunderground v.1.15,2013-03-12 13:15:00,
2013-03-12 09:20:00,46.0,45.2,29.74,NNW,346,1.0,3.0,97,0.08,,,0.76,Wunderground v.1.15,2013-03-12 13:20:00,
2013-03-12 09:25:00,46.0,45.2,29.74,NNW,346,2.0,4.0,97,0.05,,,0.76,Wunderground v.1.15,2013-03-12 13:25:00,
2013-03-12 09:30:00,45.8,45.0,29.74,NNW,338,2.0,6.0,97,0.37,,---,0.76,VWS V14.01,2013-03-12 13:30:00,
2013-03-12 09:31:00,45.8,45.0,29.74,North,355,3.0,5.0,97,0.00,,,0.76,Wunderground v.1.15,2013-03-12 13:31:00,
2013-03-12 09:36:00,45.7,44.6,29.74,North,9,2.0,6.0,96,0.00,,,0.76,Wunderground v.1.15,2013-03-12 13:36:00,
2013-03-12 09:41:00,45.8,45.0,29.75,NNE,22,2.0,5.0,97,0.00,,,0.76,Wunderground v.1.15,2013-03-12 13:41:00,
2013-03-12 09:46:00,45.8,44.7,29.75,NW,317,3.0,9.0,96,0.00,,,0.76,Wunderground v.1.15,2013-03-12 13:46:00,
2013-03-12 09:51:00,45.7,44.6,29.76,NW,312,3.0,10.0,96,0.00,,,0.76,Wunderground v.1.15,2013-03-12 13:51:00,
2013-03-12 09:56:00,45.5,44.2,29.76,NW,324,2.0,10.0,95,0.00,,,0.76,Wunderground v.1.15,2013-03-12 13:56:00,
2013-03-12 10:00:00,45.4,44.0,29.76,NW,315,3.0,10.0,95,0.17,,---,0.76,VWS V14.01,2013-03-12 14:00:00,
2013-03-12 10:02:00,45.4,43.8,29.76,WNW,303,4.0,5.0,94,0.00,,,0.76,Wunderground v.1.15,2013-03-12 14:02:00,
2013-03-12 10:07:00,45.4,43.8,29.76,WNW,294,0.0,5.0,94,0.00,,,0.76,Wunderground v.1.15,2013-03-12 14:07:00,
2013-03-12 10:12:00,45.2,43.6,29.76,WNW,296,3.0,5.0,94,0.00,,,0.77,Wunderground v.1.15,2013-03-12 14:12:00,
2013-03-12 10:17:00,45.2,43.9,29.75,NNW,342,2.0,5.0,95,0.00,,,0.77,Wunderground v.1.15,2013-03-12 14:17:00,
2013-03-12 10:22:00,45.2,43.9,29.75,NW,315,2.0,4.0,95,0.00,,,0.77,Wunderground v.1.15,2013-03-12 14:22:00,
2013-03-12 10:27:00,45.2,43.9,29.76,NW,323,2.0,4.0,95,0.00,,,0.77,Wunderground v.1.15,2013-03-12 14:27:00,
2013-03-12 10:30:00,45.2,43.9,29.75,NW,315,2.0,9.0,95,0.04,,---,0.77,VWS V14.01,2013-03-12 14:30:00,
2013-03-12 10:32:00,45.2,43.9,29.76,NW,316,2.0,4.0,95,0.00,,,0.77,Wunderground v.1.15,2013-03-12 14:32:00,
2013-03-12 10:37:00,45.4,44.1,29.75,North,355,2.0,4.0,95,0.00,,,0.77,Wunderground v.1.15,2013-03-12 14:37:00,
2013-03-12 10:42:00,45.4,43.8,29.75,NW,316,3.0,10.0,94,0.00,,,0.77,Wunderground v.1.15,2013-03-12 14:42:00,
2013-03-12 10:47:00,45.5,43.6,29.76,NW,325,2.0,10.0,93,0.00,,,0.77,Wunderground v.1.15,2013-03-12 14:47:00,
2013-03-12 10:52:00,45.7,43.8,29.76,NW,324,2.0,6.0,93,0.00,,,0.77,Wunderground v.1.15,2013-03-12 14:52:00,
2013-03-12 10:57:00,45.8,43.6,29.76,WNW,300,4.0,6.0,92,0.00,,,0.77,Wunderground v.1.15,2013-03-12 14:57:00,
2013-03-12 11:00:00,46.0,43.8,29.76,NW,315,3.0,10.0,92,0.01,,---,0.77,VWS V14.01,2013-03-12 15:00:00,
2013-03-12 11:02:00,46.1,43.9,29.77,NNW,330,2.0,4.0,92,0.00,,,0.77,Wunderground v.1.15,2013-03-12 15:02:00,
2013-03-12 11:07:00,46.2,44.3,29.77,NW,307,3.0,4.0,93,0.00,,,0.77,Wunderground v.1.15,2013-03-12 15:07:00,
2013-03-12 11:12:00,46.7,44.5,29.77,West,281,4.0,4.0,92,0.00,,,0.77,Wunderground v.1.15,2013-03-12 15:12:00,
2013-03-12 11:17:00,46.8,43.7,29.78,NW,311,2.0,6.0,89,0.00,,,0.77,Wunderground v.1.15,2013-03-12 15:17:00,
2013-03-12 11:22:00,47.0,43.3,29.78,North,5,1.0,6.0,87,0.00,,,0.77,Wunderground v.1.15,2013-03-12 15:22:00,
2013-03-12 11:27:00,47.4,44.0,29.78,NW,311,1.0,9.0,88,0.00,,,0.77,Wunderground v.1.15,2013-03-12 15:27:00,
2013-03-12 11:30:00,47.6,44.5,29.78,NW,315,3.0,10.0,89,0.01,,---,0.77,VWS V14.01,2013-03-12 15:30:00,
2013-03-12 11:32:00,47.7,44.6,29.78,NW,313,1.0,4.0,89,0.00,,,0.77,Wunderground v.1.15,2013-03-12 15:32:00,
2013-03-12 11:37:00,48.0,44.0,29.78,WNW,299,2.0,6.0,86,0.00,,,0.77,Wunderground v.1.15,2013-03-12 15:37:00,
2013-03-12 11:42:00,48.3,43.4,29.78,NW,319,3.0,5.0,83,0.00,,,0.77,Wunderground v.1.15,2013-03-12 15:42:00,
2013-03-12 11:47:00,48.8,43.2,29.78,WNW,282,3.0,11.0,81,0.00,,,0.77,Wunderground v.1.15,2013-03-12 15:47:00,
2013-03-12 11:52:00,49.1,43.5,29.78,WNW,294,3.0,6.0,81,0.00,,,0.77,Wunderground v.1.15,2013-03-12 15:52:00,
2013-03-12 11:57:00,49.1,42.9,29.78,WNW,290,2.0,7.0,79,0.00,,,0.77,Wunderground v.1.15,2013-03-12 15:57:00,
2013-03-12 12:00:00,48.9,43.0,29.78,NW,315,3.0,12.0,80,0.00,,---,0.77,VWS V14.01,2013-03-12 16:00:00,
2013-03-12 12:02:00,48.9,43.0,29.78,WNW,302,2.0,6.0,80,0.00,,,0.77,Wunderground v.1.15,2013-03-12 16:02:00,
2013-03-12 12:07:00,48.9,43.0,29.78,NW,315,3.0,7.0,80,0.00,,,0.77,Wunderground v.1.15,2013-03-12 16:07:00,
2013-03-12 12:12:00,48.8,42.9,29.78,NW,319,3.0,4.0,80,0.00,,,0.77,Wunderground v.1.15,2013-03-12 16:12:00,
2013-03-12 12:17:00,48.6,42.0,29.78,WNW,300,3.0,7.0,78,0.00,,,0.77,Wunderground v.1.15,2013-03-12 16:17:00,
2013-03-12 12:22:00,48.6,41.7,29.78,NW,311,3.0,7.0,77,0.00,,,0.77,Wunderground v.1.15,2013-03-12 16:22:00,
2013-03-12 12:27:00,48.6,42.4,29.78,WNW,296,3.0,10.0,79,0.00,,,0.77,Wunderground v.1.15,2013-03-12 16:27:00,
2013-03-12 12:30:00,48.8,41.9,29.78,WNW,292,3.0,10.0,77,0.00,,---,0.77,VWS V14.01,2013-03-12 16:30:00,
2013-03-12 12:32:00,48.8,42.2,29.78,North,355,1.0,6.0,78,0.00,,,0.77,Wunderground v.1.15,2013-03-12 16:32:00,
2013-03-12 12:37:00,48.9,42.7,29.78,West,270,2.0,6.0,79,0.00,,,0.77,Wunderground v.1.15,2013-03-12 16:37:00,
2013-03-12 12:42:00,49.1,43.2,29.78,NW,323,3.0,5.0,80,0.00,,,0.77,Wunderground v.1.15,2013-03-12 16:42:00,
2013-03-12 12:47:00,49.4,42.5,29.78,West,279,2.0,5.0,77,0.00,,,0.77,Wunderground v.1.15,2013-03-12 16:47:00,
2013-03-12 12:52:00,49.6,42.0,29.78,WNW,289,5.0,10.0,75,0.00,,,0.77,Wunderground v.1.15,2013-03-12 16:52:00,
2013-03-12 12:57:00,49.9,41.6,29.78,NW,317,7.0,10.0,73,0.00,,,0.77,Wunderground v.1.15,2013-03-12 16:57:00,
2013-03-12 13:00:00,50.1,41.4,29.79,NW,315,3.0,12.0,72,0.00,,---,0.77,VWS V14.01,2013-03-12 17:00:00,
2013-03-12 13:02:00,50.4,41.7,29.79,NW,311,3.0,7.0,72,0.00,,,0.77,Wunderground v.1.15,2013-03-12 17:02:00,
2013-03-12 13:08:00,50.7,42.0,29.78,West,281,4.0,7.0,72,0.00,,,0.77,Wunderground v.1.15,2013-03-12 17:08:00,
2013-03-12 13:13:00,51.0,41.6,29.78,NNW,337,11.0,11.0,70,0.00,,,0.77,Wunderground v.1.15,2013-03-12 17:13:00,
2013-03-12 13:18:00,51.4,41.9,29.78,WNW,301,6.0,11.0,70,0.00,,,0.77,Wunderground v.1.15,2013-03-12 17:18:00,
2013-03-12 13:23:00,51.7,41.5,29.78,WNW,286,7.0,12.0,68,0.00,,,0.77,Wunderground v.1.15,2013-03-12 17:23:00,
2013-03-12 13:28:00,52.0,41.0,29.79,NNW,341,7.0,17.0,66,0.00,,,0.77,Wunderground v.1.15,2013-03-12 17:28:00,
2013-03-12 13:30:00,52.0,41.4,29.79,NW,315,5.0,17.0,67,0.00,,---,0.77,VWS V14.01,2013-03-12 17:30:00,
2013-03-12 13:33:00,52.2,41.6,29.79,NNW,344,2.0,6.0,67,0.00,,,0.77,Wunderground v.1.15,2013-03-12 17:33:00,
2013-03-12 13:38:00,52.2,41.2,29.78,NW,315,6.0,10.0,66,0.00,,,0.77,Wunderground v.1.15,2013-03-12 17:38:00,
2013-03-12 13:43:00,52.2,41.2,29.78,NW,313,3.0,6.0,66,0.00,,,0.77,Wunderground v.1.15,2013-03-12 17:43:00,
2013-03-12 13:48:00,52.5,40.7,29.78,NW,309,3.0,9.0,64,0.00,,,0.77,Wunderground v.1.15,2013-03-12 17:48:00,
2013-03-12 13:53:00,52.6,39.5,29.78,NW,315,4.0,10.0,61,0.00,,,0.77,Wunderground v.1.15,2013-03-12 17:53:00,
2013-03-12 13:58:00,52.6,39.5,29.78,NW,311,8.0,13.0,61,0.00,,,0.77,Wunderground v.1.15,2013-03-12 17:58:00,
2013-03-12 14:00:00,52.6,39.5,29.78,NW,315,4.0,14.0,61,0.00,,---,0.77,VWS V14.01,2013-03-12 18:00:00,
2013-03-12 14:03:00,52.6,39.5,29.78,WNW,294,5.0,13.0,61,0.00,,,0.77,Wunderground v.1.15,2013-03-12 18:03:00,
2013-03-12 14:08:00,52.6,39.1,29.78,NNW,328,5.0,13.0,60,0.00,,,0.77,Wunderground v.1.15,2013-03-12 18:08:00,
2013-03-12 14:13:00,52.5,39.8,29.78,NW,314,3.0,10.0,62,0.00,,,0.77,Wunderground v.1.15,2013-03-12 18:13:00,
2013-03-12 14:18:00,52.8,39.7,29.77,NW,314,5.0,10.0,61,0.00,,,0.77,Wunderground v.1.15,2013-03-12 18:18:00,
2013-03-12 14:23:00,52.9,39.8,29.78,NW,316,3.0,11.0,61,0.00,,,0.77,Wunderground v.1.15,2013-03-12 18:23:00,
2013-03-12 14:29:00,52.8,39.3,29.77,WNW,294,7.0,14.0,60,0.00,,,0.77,Wunderground v.1.15,2013-03-12 18:29:00,
2013-03-12 14:30:00,52.8,38.9,29.77,NW,315,5.0,14.0,59,0.00,,---,0.77,VWS V14.01,2013-03-12 18:30:00,
2013-03-12 14:34:00,52.9,39.4,29.77,NNW,332,9.0,13.0,60,0.00,,,0.77,Wunderground v.1.15,2013-03-12 18:34:00,
2013-03-12 14:38:00,52.8,38.0,29.77,NW,311,5.0,14.0,57,0.00,,,0.77,Wunderground v.1.15,2013-03-12 18:38:00,
2013-03-12 14:44:00,52.6,38.2,29.77,NW,319,2.0,10.0,58,0.00,,,0.77,Wunderground v.1.15,2013-03-12 18:44:00,
2013-03-12 14:49:00,52.6,37.8,29.77,NNW,342,2.0,10.0,57,0.00,,,0.77,Wunderground v.1.15,2013-03-12 18:49:00,
2013-03-12 14:54:00,52.6,38.7,29.77,NNW,338,2.0,13.0,59,0.00,,,0.77,Wunderground v.1.15,2013-03-12 18:54:00,
2013-03-12 14:59:00,52.5,38.1,29.77,NNW,331,2.0,13.0,58,0.00,,,0.77,Wunderground v.1.15,2013-03-12 18:59:00,
2013-03-12 15:00:00,52.5,38.6,29.77,NW,315,5.0,14.0,59,0.00,,---,0.77,VWS V14.01,2013-03-12 19:00:00,
2013-03-12 15:04:00,52.5,38.6,29.78,NW,305,4.0,10.0,59,0.00,,,0.77,Wunderground v.1.15,2013-03-12 19:04:00,
2013-03-12 15:09:00,52.5,38.6,29.78,NW,320,6.0,12.0,59,0.00,,,0.77,Wunderground v.1.15,2013-03-12 19:09:00,
2013-03-12 15:14:00,52.2,37.9,29.78,WNW,292,10.0,10.0,58,0.00,,,0.77,Wunderground v.1.15,2013-03-12 19:14:00,
2013-03-12 15:19:00,51.9,38.0,29.78,NW,319,4.0,16.0,59,0.00,,,0.77,Wunderground v.1.15,2013-03-12 19:19:00,
2013-03-12 15:24:00,51.7,37.4,29.79,NNW,330,7.0,11.0,58,0.00,,,0.77,Wunderground v.1.15,2013-03-12 19:24:00,
2013-03-12 15:29:00,51.4,37.5,29.79,North,355,2.0,11.0,59,0.00,,,0.77,Wunderground v.1.15,2013-03-12 19:29:00,
2013-03-12 15:30:00,51.4,37.6,29.79,NW,315,5.0,16.0,59,0.00,,---,0.77,VWS V14.01,2013-03-12 19:30:00,
2013-03-12 15:34:00,51.1,37.3,29.79,WNW,303,3.0,11.0,59,0.00,,,0.77,Wunderground v.1.15,2013-03-12 19:34:00,
2013-03-12 15:39:00,51.3,37.4,29.79,NW,315,4.0,13.0,59,0.00,,,0.77,Wunderground v.1.15,2013-03-12 19:39:00,
2013-03-12 15:44:00,51.4,37.1,29.79,NW,313,2.0,7.0,58,0.00,,,0.77,Wunderground v.1.15,2013-03-12 19:44:00,
2013-03-12 15:49:00,51.4,36.7,29.79,NNW,345,4.0,11.0,57,0.00,,,0.77,Wunderground v.1.15,2013-03-12 19:49:00,
2013-03-12 15:54:00,51.0,36.3,29.80,NNW,346,4.0,10.0,57,0.00,,,0.77,Wunderground v.1.15,2013-03-12 19:54:00,
2013-03-12 15:59:00,50.5,36.7,29.80,NW,318,5.0,10.0,59,0.00,,,0.77,Wunderground v.1.15,2013-03-12 19:59:00,
2013-03-12 16:00:00,50.5,36.3,29.80,NNW,338,5.0,13.0,58,0.00,,---,0.77,VWS V14.01,2013-03-12 20:00:00,
2013-03-12 16:04:00,49.9,35.3,29.81,North,5,3.0,16.0,57,0.00,,,0.77,Wunderground v.1.15,2013-03-12 20:04:00,
2013-03-12 16:09:00,49.8,35.6,29.81,NNW,340,3.0,16.0,58,0.00,,,0.77,Wunderground v.1.15,2013-03-12 20:09:00,
2013-03-12 16:14:00,49.5,35.3,29.81,NW,313,6.0,12.0,58,0.00,,,0.77,Wunderground v.1.15,2013-03-12 20:14:00,
2013-03-12 16:19:00,49.2,35.0,29.81,North,5,4.0,16.0,58,0.00,,,0.77,Wunderground v.1.15,2013-03-12 20:19:00,
2013-03-12 16:24:00,49.1,35.4,29.81,WNW,287,10.0,10.0,59,0.00,,,0.77,Wunderground v.1.15,2013-03-12 20:24:00,
2013-03-12 16:29:00,48.8,35.5,29.81,North,5,7.0,11.0,60,0.00,,,0.77,Wunderground v.1.15,2013-03-12 20:29:00,
2013-03-12 16:30:00,48.8,35.5,29.81,NNW,338,5.0,16.0,60,0.00,,---,0.77,VWS V14.01,2013-03-12 20:30:00,
2013-03-12 16:34:00,48.3,33.8,29.81,NNW,348,4.0,10.0,57,0.00,,,0.77,Wunderground v.1.15,2013-03-12 20:34:00,
2013-03-12 16:39:00,48.5,35.2,29.81,WNW,293,4.0,11.0,60,0.00,,,0.77,Wunderground v.1.15,2013-03-12 20:39:00,
2013-03-12 16:44:00,48.5,34.4,29.81,NNW,333,10.0,11.0,58,0.00,,,0.77,Wunderground v.1.15,2013-03-12 20:44:00,
2013-03-12 16:49:00,48.5,34.4,29.81,North,355,3.0,11.0,58,0.00,,,0.77,Wunderground v.1.15,2013-03-12 20:49:00,
2013-03-12 16:54:00,48.5,34.4,29.82,NNW,346,3.0,11.0,58,0.00,,,0.77,Wunderground v.1.15,2013-03-12 20:54:00,
2013-03-12 16:59:00,48.5,33.9,29.82,NNW,336,5.0,11.0,57,0.00,,,0.77,Wunderground v.1.15,2013-03-12 20:59:00,
2013-03-12 17:00:00,48.5,34.0,29.82,NW,315,5.0,15.0,57,0.00,,---,0.77,VWS V14.01,2013-03-12 21:00:00,
2013-03-12 17:04:00,48.5,33.9,29.82,NNW,332,3.0,7.0,57,0.00,,,0.77,Wunderground v.1.15,2013-03-12 21:04:00,
2013-03-12 17:09:00,48.5,34.4,29.82,NNW,342,7.0,12.0,58,0.00,,,0.77,Wunderground v.1.15,2013-03-12 21:09:00,
2013-03-12 17:14:00,48.3,34.2,29.82,NNW,347,3.0,12.0,58,0.00,,,0.77,Wunderground v.1.15,2013-03-12 21:14:00,
2013-03-12 17:19:00,48.3,33.8,29.82,NNW,333,3.0,12.0,57,0.00,,,0.77,Wunderground v.1.15,2013-03-12 21:19:00,
2013-03-12 17:24:00,48.2,33.7,29.82,North,360,5.0,13.0,57,0.00,,,0.77,Wunderground v.1.15,2013-03-12 21:24:00,
2013-03-12 17:29:00,48.0,32.6,29.82,NW,313,6.0,13.0,55,0.00,,,0.77,Wunderground v.1.15,2013-03-12 21:29:00,
2013-03-12 17:30:00,48.0,32.6,29.82,NW,315,4.0,13.0,55,0.00,,---,0.77,VWS V14.01,2013-03-12 21:30:00,
2013-03-12 17:34:00,48.0,33.0,29.82,NNE,26,3.0,6.0,56,0.00,,,0.77,Wunderground v.1.15,2013-03-12 21:34:00,
2013-03-12 17:39:00,47.9,32.9,29.82,NW,326,2.0,6.0,56,0.00,,,0.77,Wunderground v.1.15,2013-03-12 21:39:00,
2013-03-12 17:44:00,47.7,32.8,29.83,NW,326,4.0,6.0,56,0.00,,,0.77,Wunderground v.1.15,2013-03-12 21:44:00,
2013-03-12 17:49:00,47.7,33.6,29.83,North,5,3.0,7.0,58,0.00,,,0.77,Wunderground v.1.15,2013-03-12 21:49:00,
2013-03-12 17:54:00,47.6,31.8,29.84,NNW,329,2.0,7.0,54,0.00,,,0.77,Wunderground v.1.15,2013-03-12 21:54:00,
2013-03-12 18:00:00,47.6,32.2,29.84,NW,317,3.0,8.0,55,0.00,,,0.77,Wunderground v.1.15,2013-03-12 22:00:00,
2013-03-12 18:05:00,47.6,32.2,29.84,NNW,335,5.0,6.0,55,0.00,,,0.77,Wunderground v.1.15,2013-03-12 22:05:00,
2013-03-12 18:10:00,47.4,31.6,29.84,NNW,334,2.0,10.0,54,0.00,,,0.77,Wunderground v.1.15,2013-03-12 22:10:00,
2013-03-12 18:15:00,47.4,32.0,29.84,West,279,5.0,6.0,55,0.00,,,0.77,Wunderground v.1.15,2013-03-12 22:15:00,
2013-03-12 18:20:00,47.1,31.7,29.85,NNW,337,4.0,11.0,55,0.00,,,0.77,Wunderground v.1.15,2013-03-12 22:20:00,
2013-03-12 18:25:00,47.0,31.7,29.85,NW,316,3.0,6.0,55,0.00,,,0.77,Wunderground v.1.15,2013-03-12 22:25:00,
2013-03-12 18:30:00,46.8,32.4,29.85,NNE,28,2.0,3.0,57,0.00,,,0.77,Wunderground v.1.15,2013-03-12 22:30:00,
2013-03-12 18:35:00,46.7,31.8,29.86,North,5,4.0,5.0,56,0.00,,,0.77,Wunderground v.1.15,2013-03-12 22:35:00,
2013-03-12 18:40:00,46.4,31.5,29.86,NW,313,3.0,3.0,56,0.00,,,0.77,Wunderground v.1.15,2013-03-12 22:40:00,
2013-03-12 18:45:00,46.1,31.3,29.86,WNW,292,4.0,10.0,56,0.00,,,0.77,Wunderground v.1.15,2013-03-12 22:45:00,
2013-03-12 18:50:00,45.7,31.3,29.86,NW,311,3.0,5.0,57,0.00,,,0.77,Wunderground v.1.15,2013-03-12 22:50:00,
2013-03-12 18:55:00,45.2,30.9,29.87,NW,315,4.0,11.0,57,0.00,,,0.77,Wunderground v.1.15,2013-03-12 22:55:00,
2013-03-12 19:00:00,44.9,30.6,29.87,NW,305,6.0,11.0,57,0.00,,,0.77,Wunderground v.1.15,2013-03-12 23:00:00,
2013-03-12 19:05:00,44.6,30.7,29.87,NNW,331,3.0,9.0,58,0.00,,,0.77,Wunderground v.1.15,2013-03-12 23:05:00,
2013-03-12 19:10:00,44.3,30.9,29.87,NNW,339,5.0,5.0,59,0.00,,,0.77,Wunderground v.1.15,2013-03-12 23:10:00,
2013-03-12 19:15:00,43.9,30.9,29.87,NW,323,4.0,8.0,60,0.00,,,0.77,Wunderground v.1.15,2013-03-12 23:15:00,
2013-03-12 19:20:00,43.6,30.6,29.87,NW,321,2.0,4.0,60,0.00,,,0.77,Wunderground v.1.15,2013-03-12 23:20:00,
2013-03-12 19:25:00,43.3,30.7,29.88,WNW,302,3.0,9.0,61,0.00,,,0.77,Wunderground v.1.15,2013-03-12 23:25:00,
2013-03-12 19:30:00,43.1,31.0,29.88,NW,304,3.0,3.0,62,0.00,,,0.77,Wunderground v.1.15,2013-03-12 23:30:00,
2013-03-12 19:35:00,42.8,30.7,29.89,NNW,335,3.0,4.0,62,0.00,,,0.77,Wunderground v.1.15,2013-03-12 23:35:00,
2013-03-12 19:40:00,42.5,30.8,29.89,NW,317,1.0,2.0,63,0.00,,,0.77,Wunderground v.1.15,2013-03-12 23:40:00,
2013-03-12 19:45:00,42.3,30.6,29.89,North,351,2.0,9.0,63,0.00,,,0.77,Wunderground v.1.15,2013-03-12 23:45:00,
2013-03-12 19:50:00,42.2,30.5,29.90,WNW,298,1.0,2.0,63,0.00,,,0.77,Wunderground v.1.15,2013-03-12 23:50:00,
2013-03-12 19:55:00,42.1,30.8,29.90,West,279,3.0,6.0,64,0.00,,,0.77,Wunderground v.1.15,2013-03-12 23:55:00,
2013-03-12 20:00:00,41.9,30.6,29.91,NW,315,2.0,5.0,64,0.00,,,0.77,Wunderground v.1.15,2013-03-13 00:00:00,
2013-03-12 20:05:00,41.8,30.5,29.91,NW,307,3.0,5.0,64,0.00,,,0.77,Wunderground v.1.15,2013-03-13 00:05:00,
2013-03-12 20:11:00,41.6,30.3,29.91,NW,321,3.0,3.0,64,0.00,,,0.77,Wunderground v.1.15,2013-03-13 00:11:00,
2013-03-12 20:16:00,41.6,30.3,29.91,WNW,297,4.0,9.0,64,0.00,,,0.77,Wunderground v.1.15,2013-03-13 00:16:00,
2013-03-12 20:20:00,41.5,30.2,29.92,NW,308,3.0,4.0,64,0.00,,,0.77,Wunderground v.1.15,2013-03-13 00:20:00,
2013-03-12 20:25:00,41.5,29.8,29.92,NW,307,3.0,16.0,63,0.00,,,0.77,Wunderground v.1.15,2013-03-13 00:25:00,
2013-03-12 20:30:00,41.6,30.0,29.92,NW,315,4.0,16.0,63,0.00,,---,0.77,VWS V14.01,2013-03-13 00:30:00,
2013-03-12 20:31:00,41.6,29.9,29.92,NW,306,3.0,5.0,63,0.00,,,0.77,Wunderground v.1.15,2013-03-13 00:31:00,
2013-03-12 20:36:00,41.6,29.9,29.92,WNW,290,1.0,12.0,63,0.00,,,0.77,Wunderground v.1.15,2013-03-13 00:36:00,
2013-03-12 20:41:00,41.5,29.8,29.92,WNW,298,1.0,4.0,63,0.00,,,0.77,Wunderground v.1.15,2013-03-13 00:41:00,
2013-03-12 20:45:00,41.3,29.6,29.93,NW,321,3.0,6.0,63,0.00,,,0.77,Wunderground v.1.15,2013-03-13 00:45:00,
2013-03-12 20:51:00,41.2,29.2,29.93,NW,318,4.0,6.0,62,0.00,,,0.77,Wunderground v.1.15,2013-03-13 00:51:00,
2013-03-12 20:56:00,41.2,29.5,29.93,NW,313,5.0,10.0,63,0.00,,,0.77,Wunderground v.1.15,2013-03-13 00:56:00,
2013-03-12 21:00:00,41.2,28.8,29.93,NW,315,4.0,12.0,61,0.00,,---,0.77,VWS V14.01,2013-03-13 01:00:00,
2013-03-12 21:01:00,41.2,28.8,29.93,NW,319,3.0,4.0,61,0.00,,,0.77,Wunderground v.1.15,2013-03-13 01:01:00,
2013-03-12 21:06:00,41.2,29.2,29.93,NNW,329,7.0,8.0,62,0.00,,,0.77,Wunderground v.1.15,2013-03-13 01:06:00,
2013-03-12 21:11:00,41.1,29.1,29.93,NNW,335,5.0,6.0,62,0.00,,,0.77,Wunderground v.1.15,2013-03-13 01:11:00,
2013-03-12 21:16:00,41.1,29.1,29.93,NW,326,4.0,6.0,62,0.00,,,0.77,Wunderground v.1.15,2013-03-13 01:16:00,
2013-03-12 21:21:00,40.9,28.9,29.93,WNW,299,2.0,5.0,62,0.00,,,0.77,Wunderground v.1.15,2013-03-13 01:21:00,
2013-03-12 21:26:00,40.8,29.2,29.93,NW,312,3.0,7.0,63,0.00,,,0.77,Wunderground v.1.15,2013-03-13 01:26:00,
2013-03-12 21:30:00,40.6,29.0,29.93,NW,315,3.0,11.0,63,0.00,,---,0.77,VWS V14.01,2013-03-13 01:30:00,
2013-03-12 21:31:00,40.6,29.4,29.94,North,350,2.0,4.0,64,0.00,,,0.77,Wunderground v.1.15,2013-03-13 01:31:00,
2013-03-12 21:36:00,40.5,29.3,29.94,WNW,297,2.0,4.0,64,0.00,,,0.77,Wunderground v.1.15,2013-03-13 01:36:00,
2013-03-12 21:42:00,40.2,29.0,29.94,NNW,335,1.0,2.0,64,0.00,,,0.77,Wunderground v.1.15,2013-03-13 01:42:00,
2013-03-12 21:47:00,40.1,29.3,29.94,NW,326,1.0,2.0,65,0.00,,,0.77,Wunderground v.1.15,2013-03-13 01:47:00,
2013-03-12 21:52:00,39.8,29.7,29.94,NW,326,0.0,2.0,67,0.00,,,0.77,Wunderground v.1.15,2013-03-13 01:52:00,
2013-03-12 21:57:00,39.6,29.5,29.94,NNW,338,1.0,4.0,67,0.00,,,0.77,Wunderground v.1.15,2013-03-13 01:57:00,
2013-03-12 22:02:00,39.5,29.8,29.94,NNW,334,1.0,4.0,68,0.00,,,0.77,Wunderground v.1.15,2013-03-13 02:02:00,
2013-03-12 22:07:00,39.3,29.6,29.94,NNW,333,1.0,4.0,68,0.00,,,0.77,Wunderground v.1.15,2013-03-13 02:07:00,
2013-03-12 22:12:00,39.3,29.6,29.94,NNW,338,1.0,2.0,68,0.00,,,0.77,Wunderground v.1.15,2013-03-13 02:12:00,
2013-03-12 22:17:00,39.2,29.9,29.94,NNW,338,1.0,2.0,69,0.00,,,0.77,Wunderground v.1.15,2013-03-13 02:17:00,
2013-03-12 22:22:00,39.1,29.8,29.94,NNW,338,1.0,2.0,69,0.00,,,0.77,Wunderground v.1.15,2013-03-13 02:22:00,
2013-03-12 22:56:00,38.9,28.9,29.95,NW,311,2.0,3.0,67,0.00,,---,0.77,VWS V14.01,2013-03-13 02:56:00,
2013-03-12 23:00:00,38.9,28.9,29.95,WNW,285,1.0,3.0,67,0.00,,---,0.77,VWS V14.01,2013-03-13 03:00:00,
2013-03-12 23:01:00,38.9,28.9,29.95,WNW,285,1.0,2.0,67,0.00,,---,0.77,VWS V14.01,2013-03-13 03:01:00,
2013-03-12 23:05:00,38.8,28.8,29.95,WNW,293,3.0,3.0,67,0.00,,---,0.77,VWS V14.01,2013-03-13 03:05:00,
2013-03-12 23:07:00,38.8,28.8,29.95,WNW,294,0.0,4.0,67,0.00,,---,0.77,VWS V14.01,2013-03-13 03:07:00,
2013-03-12 23:10:00,38.8,28.4,29.95,NW,318,3.0,6.0,66,0.00,,---,0.77,VWS V14.01,2013-03-13 03:10:00,
2013-03-12 23:12:00,38.8,28.1,29.95,NW,318,1.0,3.0,65,0.00,,---,0.77,VWS V14.01,2013-03-13 03:12:00,
2013-03-12 23:15:00,38.9,28.1,29.95,NW,306,1.0,4.0,65,0.00,,---,0.77,VWS V14.01,2013-03-13 03:15:00,
2013-03-12 23:17:00,38.9,28.1,29.95,NW,306,2.0,3.0,65,0.00,,---,0.77,VWS V14.01,2013-03-13 03:17:00,
2013-03-12 23:20:00,39.1,28.3,29.95,ENE,67,2.0,4.0,65,0.00,,---,0.77,VWS V14.01,2013-03-13 03:20:00,
2013-03-12 23:22:00,38.9,28.1,29.95,NNW,340,1.0,3.0,65,0.00,,---,0.77,VWS V14.01,2013-03-13 03:22:00,
2013-03-12 23:25:00,38.9,27.8,29.96,NW,316,3.0,3.0,64,0.00,,---,0.77,VWS V14.01,2013-03-13 03:25:00,
2013-03-12 23:27:00,39.1,28.3,29.95,WNW,300,3.0,5.0,65,0.00,,---,0.77,VWS V14.01,2013-03-13 03:27:00,
2013-03-12 23:30:00,39.1,28.3,29.96,NW,306,3.0,5.0,65,0.00,,---,0.77,VWS V14.01,2013-03-13 03:30:00,
2013-03-12 23:32:00,39.1,28.3,29.96,NW,306,3.0,4.0,65,0.00,,---,0.77,VWS V14.01,2013-03-13 03:32:00,
2013-03-12 23:35:00,39.1,28.3,29.96,NW,317,4.0,5.0,65,0.00,,---,0.77,VWS V14.01,2013-03-13 03:35:00,
2013-03-12 23:37:00,39.1,29.8,29.96,NW,309,4.0,5.0,69,0.00,,---,0.77,VWS V14.01,2013-03-13 03:37:00,
2013-03-12 23:40:00,39.2,28.1,29.96,NW,309,2.0,5.0,64,0.00,,---,0.77,VWS V14.01,2013-03-13 03:40:00,
2013-03-12 23:42:00,39.2,28.1,29.96,NW,306,1.0,4.0,64,0.00,,---,0.77,VWS V14.01,2013-03-13 03:42:00,
2013-03-12 23:45:00,39.2,27.7,29.96,WNW,284,4.0,6.0,63,0.00,,---,0.77,VWS V14.01,2013-03-13 03:45:00,
2013-03-12 23:47:00,39.2,27.7,29.96,WNW,302,2.0,4.0,63,0.00,,---,0.77,VWS V14.01,2013-03-13 03:47:00,
2013-03-12 23:50:00,39.2,27.7,29.96,WNW,284,3.0,5.0,63,0.00,,---,0.77,VWS V14.01,2013-03-13 03:50:00,
2013-03-12 23:52:00,39.2,28.1,29.96,WNW,293,2.0,11.0,64,0.00,,---,0.77,VWS V14.01,2013-03-13 03:52:00,
2013-03-12 23:55:00,39.2,27.7,29.97,West,273,4.0,11.0,63,0.00,,---,0.77,VWS V14.01,2013-03-13 03:55:00,
2013-03-12 23:57:00,39.3,27.0,29.96,NW,304,2.0,10.0,61,0.00,,---,0.77,VWS V14.01,2013-03-13 03:57:00,